createdAt,value
2018-10-16T00:01:04.388Z,101081.91
2018-10-16T00:03:34.827Z,101085.78
2018-10-16T00:06:08.236Z,101085.57
2018-10-16T00:08:39.050Z,101092.19
2018-10-16T00:11:09.286Z,101088.63
2018-10-16T00:13:39.490Z,101094.69
2018-10-16T00:16:09.726Z,101089.39
2018-10-16T00:18:39.920Z,101095.16
2018-10-16T00:21:10.115Z,101096.89
2018-10-16T00:23:40.304Z,101096.63
2018-10-16T00:26:10.581Z,101097.12
2018-10-16T00:28:40.864Z,101093.35
2018-10-16T00:31:11.003Z,101099.81
2018-10-16T00:33:41.191Z,101099.40
2018-10-16T00:36:11.316Z,101101.51
2018-10-16T00:38:41.509Z,101103.88
2018-10-16T00:41:11.728Z,101103.34
2018-10-16T00:43:41.957Z,101102.88
2018-10-16T00:46:12.076Z,101108.55
2018-10-16T00:48:42.396Z,101103.51
2018-10-16T00:51:12.554Z,101115.69
2018-10-16T00:53:42.681Z,101114.36
2018-10-16T00:56:12.773Z,101111.71
2018-10-16T00:58:42.924Z,101112.09
2018-10-16T01:01:13.115Z,101109.38
2018-10-16T01:03:43.280Z,101118.05
2018-10-16T01:06:13.463Z,101121.02
2018-10-16T01:08:43.691Z,101127.80
2018-10-16T01:11:13.861Z,101124.92
2018-10-16T01:13:44.040Z,101129.12
2018-10-16T01:16:14.264Z,101128.45
2018-10-16T01:18:44.520Z,101126.49
2018-10-16T01:21:14.618Z,101134.22
2018-10-16T01:23:44.829Z,101141.22
2018-10-16T01:26:14.995Z,101131.56
2018-10-16T01:28:45.587Z,101127.50
2018-10-16T01:31:15.688Z,101130.09
2018-10-16T01:33:45.935Z,101128.82
2018-10-16T01:36:16.094Z,101133.27
2018-10-16T01:38:46.311Z,101131.03
2018-10-16T01:41:16.483Z,101137.56
2018-10-16T01:43:46.694Z,101142.42
2018-10-16T01:46:16.890Z,101140.15
2018-10-16T01:48:47.119Z,101139.83
2018-10-16T01:51:17.249Z,101142.34
2018-10-16T01:53:47.409Z,101142.34
2018-10-16T01:56:17.546Z,101143.03
2018-10-16T01:58:47.912Z,101141.64
2018-10-16T02:01:18.056Z,101141.55
2018-10-16T02:03:48.203Z,101133.52
2018-10-16T02:06:18.389Z,101133.91
2018-10-16T02:08:48.590Z,101141.48
2018-10-16T02:11:18.890Z,101138.77
2018-10-16T02:13:49.034Z,101143.49
2018-10-16T02:16:19.206Z,101140.74
2018-10-16T02:18:49.355Z,101138.41
2018-10-16T02:21:19.506Z,101145.17
2018-10-16T02:23:49.691Z,101142.77
2018-10-16T02:26:19.865Z,101143.92
2018-10-16T02:28:50.040Z,101148.22
2018-10-16T02:31:20.226Z,101144.61
2018-10-16T02:33:50.428Z,101145.70
2018-10-16T02:36:20.565Z,101146.17
2018-10-16T02:38:50.742Z,101150.16
2018-10-16T02:41:20.871Z,101147.81
2018-10-16T02:43:51.078Z,101147.34
2018-10-16T02:46:21.222Z,101146.01
2018-10-16T02:48:51.425Z,101154.75
2018-10-16T02:51:21.561Z,101151.18
2018-10-16T02:53:51.805Z,101151.63
2018-10-16T02:56:21.988Z,101155.00
2018-10-16T02:58:52.150Z,101153.97
2018-10-16T03:01:22.398Z,101153.19
2018-10-16T03:03:52.590Z,101155.84
2018-10-16T03:06:22.770Z,101157.08
2018-10-16T03:08:52.930Z,101156.22
2018-10-16T03:11:23.080Z,101152.41
2018-10-16T03:13:53.280Z,101155.37
2018-10-16T03:16:23.418Z,101159.66
2018-10-16T03:18:53.635Z,101156.83
2018-10-16T03:21:23.795Z,101162.52
2018-10-16T03:23:53.968Z,101164.25
2018-10-16T03:26:24.216Z,101160.58
2018-10-16T03:28:54.397Z,101160.34
2018-10-16T03:31:24.610Z,101165.64
2018-10-16T03:33:54.736Z,101166.88
2018-10-16T03:36:24.887Z,101175.14
2018-10-16T03:38:55.021Z,101175.00
2018-10-16T03:41:25.200Z,101174.45
2018-10-16T03:44:01.608Z,101175.38
2018-10-16T03:46:31.942Z,101177.86
2018-10-16T03:49:02.150Z,101176.53
2018-10-16T03:51:32.322Z,101179.19
2018-10-16T03:54:02.413Z,101179.12
2018-10-16T03:56:32.612Z,101182.14
2018-10-16T03:59:02.753Z,101182.45
2018-10-16T04:01:32.908Z,101188.23
2018-10-16T04:04:03.038Z,101186.37
2018-10-16T04:06:33.203Z,101194.27
2018-10-16T04:09:03.462Z,101190.48
2018-10-16T04:11:33.612Z,101193.44
2018-10-16T04:14:03.761Z,101184.08
2018-10-16T04:16:34.006Z,101190.89
2018-10-16T04:19:04.129Z,101192.05
2018-10-16T04:21:49.502Z,101195.35
2018-10-16T04:24:19.618Z,101199.68
2018-10-16T04:26:49.775Z,101193.17
2018-10-16T04:29:19.947Z,101200.84
2018-10-16T04:31:50.046Z,101204.20
2018-10-16T04:34:20.176Z,101202.20
2018-10-16T04:36:50.314Z,101204.13
2018-10-16T04:39:20.503Z,101197.73
2018-10-16T04:41:50.899Z,101203.04
2018-10-16T04:44:21.027Z,101211.31
2018-10-16T04:46:51.207Z,101207.80
2018-10-16T04:49:21.375Z,101210.53
2018-10-16T04:51:51.483Z,101215.53
2018-10-16T04:54:21.567Z,101212.42
2018-10-16T04:56:51.710Z,101219.67
2018-10-16T04:59:21.834Z,101222.25
2018-10-16T05:01:51.980Z,101223.49
2018-10-16T05:04:22.147Z,101218.20
2018-10-16T05:06:52.288Z,101220.08
2018-10-16T05:09:22.409Z,101220.74
2018-10-16T05:11:54.005Z,101215.73
2018-10-16T05:14:24.118Z,101218.67
2018-10-16T05:16:54.281Z,101220.25
2018-10-16T05:19:24.393Z,101225.77
2018-10-16T05:21:54.478Z,101227.63
2018-10-16T05:24:24.637Z,101232.61
2018-10-16T05:26:54.772Z,101228.23
2018-10-16T05:29:24.904Z,101226.68
2018-10-16T05:31:55.120Z,101235.11
2018-10-16T05:34:25.384Z,101237.13
2018-10-16T05:36:55.554Z,101236.77
2018-10-16T05:39:25.655Z,101241.31
2018-10-16T05:41:55.758Z,101248.00
2018-10-16T05:44:25.904Z,101244.97
2018-10-16T05:46:56.052Z,101251.59
2018-10-16T05:49:26.173Z,101249.86
2018-10-16T05:51:56.301Z,101248.53
2018-10-16T05:54:26.545Z,101249.70
2018-10-16T05:56:56.660Z,101251.91
2018-10-16T05:59:26.756Z,101255.42
2018-10-16T06:01:56.951Z,101256.80
2018-10-16T06:04:27.063Z,101255.57
2018-10-16T06:06:57.436Z,101257.66
2018-10-16T06:09:27.557Z,101264.95
2018-10-16T06:11:57.837Z,101264.00
2018-10-16T06:14:28.010Z,101258.38
2018-10-16T06:16:58.252Z,101272.91
2018-10-16T06:19:28.650Z,101275.20
2018-10-16T06:21:58.936Z,101277.00
2018-10-16T06:24:29.122Z,101281.83
2018-10-16T06:26:59.198Z,101286.75
2018-10-16T06:29:29.871Z,101279.12
2018-10-16T06:32:01.400Z,101283.73
2018-10-16T06:34:31.587Z,101282.13
2018-10-16T06:37:01.860Z,101285.11
2018-10-16T06:39:32.050Z,101283.16
2018-10-16T06:42:02.216Z,101286.96
2018-10-16T06:44:32.339Z,101291.25
2018-10-16T06:47:02.508Z,101285.06
2018-10-16T06:49:32.600Z,101279.95
2018-10-16T06:52:03.012Z,101284.13
2018-10-16T06:54:33.207Z,101292.03
2018-10-16T06:57:03.401Z,101293.21
2018-10-16T06:59:33.899Z,101297.31
2018-10-16T07:02:04.167Z,101295.15
2018-10-16T07:04:34.241Z,101294.83
2018-10-16T07:07:04.593Z,101289.38
2018-10-16T07:09:34.651Z,101296.42
2018-10-16T07:12:05.416Z,101291.81
2018-10-16T07:14:35.564Z,101300.53
2018-10-16T07:17:05.871Z,101291.98
2018-10-16T07:19:36.343Z,101303.52
2018-10-16T07:22:09.790Z,101297.92
2018-10-16T07:24:42.962Z,101291.03
2018-10-16T07:27:14.047Z,101292.34
2018-10-16T07:29:44.169Z,101292.34
2018-10-16T07:32:15.053Z,101293.98
2018-10-16T07:34:45.179Z,101291.63
2018-10-16T07:37:16.190Z,101290.17
2018-10-16T07:39:46.351Z,101299.37
2018-10-16T07:42:17.547Z,101298.95
2018-10-16T07:44:47.694Z,101293.25
2018-10-16T07:47:18.532Z,101295.44
2018-10-16T07:49:48.635Z,101287.28
2018-10-16T07:52:19.564Z,101291.27
2018-10-16T07:54:49.838Z,101289.61
2018-10-16T07:57:20.147Z,101294.97
2018-10-16T07:59:50.254Z,101288.09
2018-10-16T08:02:20.389Z,101291.36
2018-10-16T08:04:50.514Z,101286.59
2018-10-16T08:07:20.738Z,101286.17
2018-10-16T08:09:50.810Z,101286.70
2018-10-16T08:12:20.962Z,101289.98
2018-10-16T08:14:51.090Z,101291.59
2018-10-16T08:17:21.394Z,101292.92
2018-10-16T08:19:51.464Z,101290.34
2018-10-16T08:22:21.619Z,101293.88
2018-10-16T08:24:51.776Z,101289.24
2018-10-16T08:27:21.952Z,101287.63
2018-10-16T08:29:52.306Z,101283.73
2018-10-16T08:32:22.779Z,101281.70
2018-10-16T08:34:52.917Z,101284.31
2018-10-16T08:39:50.237Z,101286.38
2018-10-16T08:43:40.953Z,101289.08
2018-10-16T08:46:28.384Z,101286.97
2018-10-16T08:49:15.073Z,101282.41
2018-10-16T08:51:47.848Z,101288.14
2018-10-16T08:54:18.024Z,101289.14
2018-10-16T08:56:48.171Z,101287.71
2018-10-16T08:59:18.342Z,101286.20
2018-10-16T09:01:48.526Z,101286.64
2018-10-16T09:04:18.822Z,101292.11
2018-10-16T09:06:49.054Z,101295.11
2018-10-16T09:09:19.614Z,101296.62
2018-10-16T09:11:50.140Z,101301.84
2018-10-16T09:14:20.304Z,101295.03
2018-10-16T09:16:50.364Z,101303.56
2018-10-16T09:19:20.509Z,101296.00
2018-10-16T09:21:50.659Z,101297.33
2018-10-16T09:24:20.805Z,101291.95
2018-10-16T09:26:50.963Z,101301.36
2018-10-16T09:29:21.072Z,101303.70
2018-10-16T09:31:53.161Z,101304.52
2018-10-16T09:34:24.023Z,101306.16
2018-10-16T09:36:54.262Z,101299.70
2018-10-16T09:39:24.390Z,101297.66
2018-10-16T09:41:54.486Z,101304.84
2018-10-16T09:44:24.626Z,101303.35
2018-10-16T09:46:54.757Z,101302.55
2018-10-16T09:49:24.989Z,101301.59
2018-10-16T09:51:55.107Z,101304.66
2018-10-16T09:54:25.420Z,101305.39
2018-10-16T09:56:55.538Z,101294.70
2018-10-16T09:59:25.701Z,101299.84
2018-10-16T10:01:56.702Z,101304.34
2018-10-16T10:04:26.834Z,101296.05
2018-10-16T10:06:56.908Z,101299.47
2018-10-16T10:09:33.639Z,101301.86
2018-10-16T10:12:03.713Z,101298.61
2018-10-16T10:14:34.048Z,101305.22
2018-10-16T10:17:04.216Z,101305.86
2018-10-16T10:19:34.310Z,101303.09
2018-10-16T10:22:04.486Z,101304.24
2018-10-16T10:24:34.750Z,101305.08
2018-10-16T10:27:04.925Z,101308.56
2018-10-16T10:29:35.157Z,101304.84
2018-10-16T10:32:05.775Z,101295.20
2018-10-16T10:34:36.015Z,101301.83
2018-10-16T10:37:06.296Z,101303.22
2018-10-16T10:39:36.416Z,101297.80
2018-10-16T10:42:06.596Z,101298.99
2018-10-16T10:44:36.691Z,101301.23
2018-10-16T10:47:07.158Z,101299.42
2018-10-16T10:49:37.279Z,101300.22
2018-10-16T10:52:07.464Z,101292.78
2018-10-16T10:54:37.669Z,101289.55
2018-10-16T10:57:08.645Z,101290.55
2018-10-16T10:59:38.907Z,101288.02
2018-10-16T11:02:09.033Z,101283.27
2018-10-16T11:04:39.547Z,101285.16
2018-10-16T11:07:09.714Z,101282.16
2018-10-16T11:09:39.864Z,101280.49
2018-10-16T11:12:10.038Z,101279.21
2018-10-16T11:14:51.492Z,101275.71
2018-10-16T11:17:21.731Z,101274.52
2018-10-16T11:19:51.861Z,101272.80
2018-10-16T11:22:21.971Z,101272.04
2018-10-16T11:24:52.216Z,101279.60
2018-10-16T11:27:22.351Z,101274.94
2018-10-16T11:29:52.475Z,101273.31
2018-10-16T11:32:22.674Z,101275.16
2018-10-16T11:34:52.749Z,101272.23
2018-10-16T11:37:22.828Z,101270.12
2018-10-16T11:39:52.938Z,101266.13
2018-10-16T11:42:23.042Z,101267.20
2018-10-16T11:44:53.243Z,101263.63
2018-10-16T11:47:23.352Z,101267.42
2018-10-16T11:49:53.594Z,101262.04
2018-10-16T11:52:23.832Z,101264.73
2018-10-16T11:54:53.969Z,101261.14
2018-10-16T11:57:24.112Z,101269.15
2018-10-16T11:59:54.238Z,101271.00
2018-10-16T12:02:24.761Z,101271.42
2018-10-16T12:04:54.877Z,101269.28
2018-10-16T12:07:25.037Z,101268.35
2018-10-16T12:09:55.171Z,101267.37
2018-10-16T12:12:25.338Z,101272.91
2018-10-16T12:14:55.546Z,101265.55
2018-10-16T12:17:30.091Z,101263.04
2018-10-16T12:20:06.811Z,101270.49
2018-10-16T12:22:36.901Z,101267.08
2018-10-16T12:25:08.227Z,101272.40
2018-10-16T12:27:38.476Z,101266.50
2018-10-16T12:30:09.233Z,101262.86
2018-10-16T12:32:39.502Z,101265.30
2018-10-16T12:35:09.691Z,101263.77
2018-10-16T12:37:39.926Z,101265.73
2018-10-16T12:40:10.334Z,101270.75
2018-10-16T12:42:40.508Z,101263.30
2018-10-16T12:45:10.783Z,101260.22
2018-10-16T12:47:41.095Z,101266.16
2018-10-16T12:50:11.311Z,101264.34
2018-10-16T12:52:41.460Z,101263.13
2018-10-16T12:55:11.687Z,101258.25
2018-10-16T12:57:41.846Z,101260.84
2018-10-16T13:00:12.135Z,101263.09
2018-10-16T13:02:42.239Z,101252.30
2018-10-16T13:05:12.732Z,101258.23
2018-10-16T13:07:42.880Z,101256.25
2018-10-16T13:10:17.010Z,101254.86
2018-10-16T13:12:47.692Z,101253.38
2018-10-16T13:15:18.254Z,101251.83
2018-10-16T13:17:48.470Z,101257.30
2018-10-16T13:20:18.562Z,101250.87
2018-10-16T13:22:49.537Z,101258.20
2018-10-16T13:25:19.718Z,101255.72
2018-10-16T13:27:49.915Z,101260.70
2018-10-16T13:30:20.797Z,101249.85
2018-10-16T13:32:51.669Z,101249.19
2018-10-16T13:35:22.600Z,101249.36
2018-10-16T13:37:52.820Z,101247.22
2018-10-16T13:40:22.977Z,101250.07
2018-10-16T13:42:53.134Z,101246.48
2018-10-16T13:45:23.284Z,101254.42
2018-10-16T13:47:53.402Z,101248.58
2018-10-16T13:50:23.777Z,101245.59
2018-10-16T13:52:53.964Z,101253.78
2018-10-16T13:55:24.152Z,101252.23
2018-10-16T13:57:54.508Z,101253.21
2018-10-16T14:00:24.673Z,101246.83
2018-10-16T14:02:55.029Z,101247.97
2018-10-16T14:05:25.259Z,101242.38
2018-10-16T14:07:55.438Z,101245.81
2018-10-16T14:10:25.638Z,101250.75
2018-10-16T14:12:55.803Z,101242.71
2018-10-16T14:15:26.039Z,101250.10
2018-10-16T14:17:56.236Z,101250.11
2018-10-16T14:20:26.477Z,101246.06
2018-10-16T14:22:56.586Z,101246.39
2018-10-16T14:25:26.948Z,101251.73
2018-10-16T14:27:57.069Z,101250.55
2018-10-16T14:30:27.439Z,101254.09
2018-10-16T14:32:57.542Z,101248.02
2018-10-16T14:35:27.897Z,101249.68
2018-10-16T14:37:58.063Z,101245.81
2018-10-16T14:40:28.298Z,101244.40
2018-10-16T14:42:58.464Z,101240.95
2018-10-16T14:45:28.778Z,101237.31
2018-10-16T14:47:59.004Z,101245.23
2018-10-16T14:50:29.368Z,101246.23
2018-10-16T14:52:59.493Z,101241.06
2018-10-16T14:55:29.885Z,101242.28
2018-10-16T14:58:00.080Z,101246.53
2018-10-16T15:00:30.582Z,101244.59
2018-10-16T15:03:00.760Z,101240.96
2018-10-16T15:05:30.977Z,101241.55
2018-10-16T15:08:04.514Z,101240.92
2018-10-16T15:11:25.279Z,101238.78
2018-10-16T15:13:56.015Z,101238.79
2018-10-16T15:16:26.429Z,101238.37
2018-10-16T15:18:56.525Z,101235.40
2018-10-16T15:21:33.960Z,101239.41
2018-10-16T15:24:11.697Z,101231.91
2018-10-16T15:26:49.722Z,101235.72
2018-10-16T15:29:29.204Z,101237.11
2018-10-16T15:32:06.754Z,101234.92
2018-10-16T15:34:47.010Z,101232.83
2018-10-16T15:37:24.427Z,101237.28
2018-10-16T15:40:10.243Z,101235.59
2018-10-16T15:42:48.698Z,101235.09
2018-10-16T15:45:18.958Z,101237.02
2018-10-16T15:47:49.195Z,101240.86
2018-10-16T15:50:19.650Z,101241.84
2018-10-16T15:52:50.815Z,101244.25
2018-10-16T15:55:20.943Z,101239.60
2018-10-16T15:57:51.180Z,101244.58
2018-10-16T16:00:21.219Z,101253.55
2018-10-16T16:02:55.249Z,101251.85
2018-10-16T16:05:25.334Z,101249.03
2018-10-16T16:07:56.193Z,101252.18
2018-10-16T16:10:26.303Z,101248.30
2018-10-16T16:12:57.356Z,101256.25
2018-10-16T16:15:27.562Z,101249.70
2018-10-16T16:17:59.251Z,101252.70
2018-10-16T16:20:29.399Z,101248.59
2018-10-16T16:22:59.526Z,101254.47
2018-10-16T16:25:29.790Z,101255.70
2018-10-16T16:27:59.992Z,101250.09
2018-10-16T16:30:30.306Z,101253.36
2018-10-16T16:33:00.518Z,101262.73
2018-10-16T16:35:30.758Z,101263.23
2018-10-16T16:38:00.921Z,101265.15
2018-10-16T16:40:31.146Z,101264.52
2018-10-16T16:43:01.415Z,101269.08
2018-10-16T16:45:31.742Z,101268.89
2018-10-16T16:48:02.895Z,101278.10
2018-10-16T16:50:33.043Z,101271.97
2018-10-16T16:53:03.280Z,101285.27
2018-10-16T16:55:33.554Z,101283.56
2018-10-16T16:58:03.808Z,101280.67
2018-10-16T17:00:34.012Z,101289.12
2018-10-16T17:03:04.191Z,101294.12
2018-10-16T17:05:34.304Z,101293.08
2018-10-16T17:08:04.534Z,101293.44
2018-10-16T17:10:34.742Z,101298.75
2018-10-16T17:13:04.902Z,101294.11
2018-10-16T17:15:35.124Z,101295.18
2018-10-16T17:18:05.319Z,101294.95
2018-10-16T17:20:35.465Z,101296.59
2018-10-16T17:23:05.846Z,101302.39
2018-10-16T17:25:36.242Z,101297.34
2018-10-16T17:28:06.405Z,101298.72
2018-10-16T17:30:36.579Z,101296.33
2018-10-16T17:33:06.927Z,101298.73
2018-10-16T17:35:36.983Z,101297.12
2018-10-16T17:38:07.271Z,101300.64
2018-10-16T17:40:38.129Z,101302.83
2018-10-16T17:43:08.458Z,101302.52
2018-10-16T17:45:38.667Z,101308.15
2018-10-16T17:50:46.030Z,101310.36
2018-10-16T17:53:16.172Z,101311.84
2018-10-16T17:55:57.714Z,101308.55
2018-10-16T17:58:29.028Z,101312.78
2018-10-16T18:00:59.150Z,101311.11
2018-10-16T18:03:29.415Z,101320.85
2018-10-16T18:05:59.713Z,101319.86
2018-10-16T18:08:29.999Z,101322.44
2018-10-16T18:11:00.353Z,101325.19
2018-10-16T18:13:30.541Z,101323.48
2018-10-16T18:16:14.798Z,101334.62
2018-10-16T18:18:45.869Z,101329.75
2018-10-16T18:21:16.095Z,101324.97
2018-10-16T18:23:46.359Z,101326.13
2018-10-16T18:26:16.676Z,101326.10
2018-10-16T18:28:46.975Z,101328.34
2018-10-16T18:31:17.249Z,101324.92
2018-10-16T18:33:47.448Z,101328.97
2018-10-16T18:36:17.626Z,101324.66
2018-10-16T18:38:47.843Z,101324.03
2018-10-16T18:41:18.099Z,101319.53
2018-10-16T18:43:48.597Z,101322.56
2018-10-16T18:46:20.068Z,101324.23
2018-10-16T18:48:50.363Z,101321.83
2018-10-16T18:51:20.659Z,101320.86
2018-10-16T18:53:51.729Z,101319.12
2018-10-16T18:56:22.330Z,101328.50
2018-10-16T18:58:52.815Z,101337.77
2018-10-16T19:01:23.017Z,101335.91
2018-10-16T19:03:53.350Z,101334.69
2018-10-16T19:06:23.517Z,101330.25
2018-10-16T19:08:53.843Z,101334.11
2018-10-16T19:11:23.993Z,101337.42
2018-10-16T19:13:54.140Z,101336.09
2018-10-16T19:16:24.397Z,101345.66
2018-10-16T19:18:54.481Z,101342.20
2018-10-16T19:21:24.635Z,101345.34
2018-10-16T19:23:54.771Z,101345.90
2018-10-16T19:26:28.996Z,101348.36
2018-10-16T19:28:59.143Z,101339.98
2018-10-16T19:31:29.312Z,101349.81
2018-10-16T19:33:59.735Z,101353.09
2018-10-16T19:36:30.036Z,101347.30
2018-10-16T19:42:44.809Z,101345.05
2018-10-16T19:45:15.901Z,101349.03
2018-10-16T19:47:45.910Z,101349.41
2018-10-16T19:50:16.644Z,101353.88
2018-10-16T19:52:46.917Z,101350.19
2018-10-16T19:55:18.713Z,101350.19
2018-10-16T19:57:48.848Z,101348.06
2018-10-16T20:00:19.093Z,101350.38
2018-10-16T20:02:49.196Z,101351.34
2018-10-16T20:05:19.397Z,101354.60
2018-10-16T20:07:49.541Z,101359.22
2018-10-16T20:10:19.709Z,101359.92
2018-10-16T20:12:49.849Z,101363.98
2018-10-16T20:15:20.567Z,101361.33
2018-10-16T20:17:50.875Z,101358.00
2018-10-16T20:20:21.239Z,101359.22
2018-10-16T20:22:51.438Z,101360.45
2018-10-16T20:25:24.375Z,101361.75
2018-10-16T20:27:54.533Z,101364.25
2018-10-16T20:30:24.758Z,101363.25
2018-10-16T20:32:54.911Z,101359.07
2018-10-16T20:35:25.162Z,101361.28
2018-10-16T20:37:55.404Z,101359.53
2018-10-16T20:40:25.571Z,101358.38
2018-10-16T20:42:55.713Z,101353.66
2018-10-16T20:45:25.834Z,101351.43
2018-10-16T20:47:55.954Z,101348.42
2018-10-16T20:50:26.320Z,101355.06
2018-10-16T20:52:56.563Z,101353.50
2018-10-16T20:55:27.363Z,101356.41
2018-10-16T20:57:57.684Z,101357.98
2018-10-16T21:00:28.437Z,101359.02
2018-10-16T21:02:58.612Z,101357.73
2018-10-16T21:05:28.937Z,101364.52
2018-10-16T21:07:59.196Z,101359.14
2018-10-16T21:10:32.382Z,101364.73
2018-10-16T21:13:02.928Z,101359.48
2018-10-16T21:15:33.847Z,101358.94
2018-10-16T21:18:05.780Z,101356.59
2018-10-16T21:20:35.957Z,101368.45
2018-10-16T21:23:07.578Z,101361.83
2018-10-16T21:25:37.934Z,101358.02
2018-10-16T21:28:19.440Z,101358.70
2018-10-16T21:30:55.883Z,101358.77
2018-10-16T21:34:32.979Z,101353.76
2018-10-16T21:37:10.145Z,101356.38
2018-10-16T21:39:42.426Z,101350.75
2018-10-16T21:42:29.427Z,101345.81
2018-10-16T21:45:12.501Z,101345.20
2018-10-16T21:47:53.670Z,101342.09
2018-10-16T21:50:32.463Z,101344.91
2018-10-16T21:53:15.701Z,101340.12
2018-10-16T21:55:53.899Z,101343.33
2018-10-16T21:58:31.227Z,101339.58
2018-10-16T22:01:07.996Z,101338.34
2018-10-16T22:03:40.480Z,101337.71
2018-10-16T22:06:18.344Z,101333.27
2018-10-16T22:08:57.717Z,101334.98
2018-10-16T22:11:35.681Z,101336.75
2018-10-16T22:14:13.426Z,101333.47
2018-10-16T22:16:43.817Z,101334.48
2018-10-16T22:19:21.954Z,101326.48
2018-10-16T22:21:58.849Z,101322.73
2018-10-16T22:24:37.775Z,101316.13
2018-10-16T22:27:16.384Z,101324.69
2018-10-16T22:29:51.770Z,101326.58
2018-10-16T22:32:25.832Z,101324.13
2018-10-16T22:34:55.997Z,101326.83
2018-10-16T22:37:33.817Z,101326.58
2018-10-16T22:40:12.931Z,101330.62
2018-10-16T22:42:52.268Z,101331.63
2018-10-16T22:45:36.001Z,101331.31
2018-10-16T22:48:16.551Z,101335.76
2018-10-16T22:50:53.081Z,101336.13
2018-10-16T22:53:31.727Z,101333.37
2018-10-16T22:56:08.672Z,101328.06
2018-10-16T22:58:47.116Z,101327.84
2018-10-16T23:01:25.006Z,101331.97
2018-10-16T23:04:04.012Z,101333.41
2018-10-16T23:06:37.808Z,101331.92
2018-10-16T23:09:14.912Z,101333.24
2018-10-16T23:11:45.235Z,101328.09
2018-10-16T23:14:15.372Z,101324.65
2018-10-16T23:16:45.578Z,101318.17
2018-10-16T23:19:15.779Z,101321.27
2018-10-16T23:21:45.959Z,101317.97
2018-10-16T23:24:16.192Z,101318.27
2018-10-16T23:26:46.391Z,101316.83
2018-10-16T23:29:16.580Z,101314.70
2018-10-16T23:31:46.791Z,101317.85
2018-10-16T23:34:16.912Z,101315.44
2018-10-16T23:36:47.083Z,101318.20
2018-10-16T23:39:17.282Z,101313.32
2018-10-16T23:41:47.485Z,101321.66
2018-10-16T23:44:17.904Z,101318.95
2018-10-16T23:46:48.161Z,101323.45
2018-10-16T23:49:18.329Z,101316.45
2018-10-16T23:51:48.465Z,101313.80
2018-10-16T23:54:18.673Z,101318.41
2018-10-16T23:56:48.883Z,101312.41
2018-10-16T23:59:19.195Z,101322.36
